Time;durP1;ratioP1;P1;durP2;ratioP2;P2;SDS_P1;SDS_P2;PMS_P1;PMS_P2;Temp;Humidity;BMP_temperature;BMP_pressure;BME280_temperature;BME280_humidity;BME280_pressure;Samples;Min_cycle;Max_cycle;Signal;HPM_P1;HPM_P2
2023/09/28 00:02:54;;;;;;;5.67;4.03;;;19.90;99.90;;;;;;5098037;28;20438;-64
2023/09/28 00:05:20;;;;;;;4.77;4.37;;;20.00;99.90;;;;;;5099048;28;20470;-64
2023/09/28 00:07:47;;;;;;;4.80;4.20;;;19.90;99.90;;;;;;5099620;28;20627;-64
2023/09/28 00:10:15;;;;;;;4.23;3.93;;;19.90;99.90;;;;;;5101958;28;20465;-63
2023/09/28 00:12:52;;;;;;;5.03;4.53;;;19.90;99.90;;;;;;5100022;28;20477;-64
2023/09/28 00:15:19;;;;;;;5.43;4.03;;;19.90;99.90;;;;;;5105525;27;21438;-64
2023/09/28 00:17:47;;;;;;;4.73;3.90;;;19.90;99.90;;;;;;5096861;28;21039;-64
2023/09/28 00:20:17;;;;;;;3.70;3.40;;;19.90;99.90;;;;;;5098423;28;20496;-64
2023/09/28 00:22:47;;;;;;;4.13;3.73;;;19.90;99.90;;;;;;5102260;28;20914;-64
2023/09/28 00:25:16;;;;;;;3.90;3.60;;;19.90;99.90;;;;;;5102347;28;20468;-64
2023/09/28 00:27:43;;;;;;;4.37;3.97;;;19.90;99.90;;;;;;5099820;28;20450;-64
2023/09/28 00:30:14;;;;;;;4.87;4.10;;;19.90;99.90;;;;;;5096512;28;20538;-64
2023/09/28 00:32:42;;;;;;;4.07;3.77;;;19.90;99.90;;;;;;5103405;28;20434;-63
2023/09/28 00:35:08;;;;;;;3.87;3.37;;;19.90;99.90;;;;;;5099591;28;20522;-64
2023/09/28 00:37:33;;;;;;;4.10;3.80;;;19.90;99.90;;;;;;5102843;28;20437;-64
2023/09/28 00:39:59;;;;;;;4.30;3.90;;;19.90;99.90;;;;;;5099229;28;20479;-64
2023/09/28 00:42:27;;;;;;;4.97;4.13;;;19.90;99.90;;;;;;5100010;28;20177;-64
2023/09/28 00:55:02;;;;;;;5.20;4.00;;;19.90;99.90;;;;;;5097750;28;20433;-63
2023/09/28 00:57:29;;;;;;;4.43;4.13;;;19.90;99.90;;;;;;5099415;28;20418;-64
2023/09/28 00:59:55;;;;;;;5.03;3.80;;;19.90;99.90;;;;;;5099077;28;20440;-64
2023/09/28 01:02:22;;;;;;;4.30;3.57;;;19.80;99.90;;;;;;5099273;28;20425;-64
2023/09/28 01:04:48;;;;;;;4.80;3.90;;;19.80;99.90;;;;;;5102666;28;20434;-64
2023/09/28 01:07:26;;;;;;;3.90;3.60;;;19.80;99.90;;;;;;5105606;28;20454;-64
2023/09/28 01:09:52;;;;;;;4.00;3.70;;;19.70;99.90;;;;;;5095706;28;20233;-64
2023/09/28 01:12:19;;;;;;;5.53;4.07;;;19.70;99.90;;;;;;5106364;28;20507;-64
2023/09/28 01:14:48;;;;;;;4.17;3.60;;;19.80;99.90;;;;;;5104015;28;20608;-64
2023/09/28 01:17:14;;;;;;;4.27;3.87;;;19.80;99.90;;;;;;5103308;28;20483;-64
2023/09/28 01:19:39;;;;;;;4.03;3.73;;;19.80;99.90;;;;;;5101072;28;20421;-64
2023/09/28 01:22:15;;;;;;;4.27;3.87;;;19.90;99.90;;;;;;5102971;28;20265;-64
2023/09/28 01:24:41;;;;;;;4.73;3.67;;;19.90;99.90;;;;;;5079231;28;20230;-63
2023/09/28 01:27:07;;;;;;;4.10;3.70;;;19.90;99.90;;;;;;5106550;28;20860;-64
2023/09/28 01:29:33;;;;;;;3.63;3.33;;;19.90;99.90;;;;;;5102608;28;20191;-64
2023/09/28 01:31:58;;;;;;;3.83;3.43;;;19.90;99.90;;;;;;5102334;28;20183;-64
2023/09/28 01:34:24;;;;;;;4.10;3.80;;;19.80;99.90;;;;;;5105707;28;20217;-63
2023/09/28 01:36:50;;;;;;;3.80;3.50;;;19.80;99.90;;;;;;5101514;28;20184;-64
2023/09/28 01:39:15;;;;;;;4.27;3.87;;;19.70;99.90;;;;;;5102854;28;20956;-64
2023/09/28 01:41:42;;;;;;;3.60;3.30;;;19.80;99.90;;;;;;5103080;28;20184;-64
2023/09/28 01:44:08;;;;;;;3.70;3.40;;;19.80;99.90;;;;;;5102690;28;20261;-64
2023/09/28 01:46:34;;;;;;;4.37;3.40;;;19.80;99.90;;;;;;5100473;28;20466;-64
2023/09/28 01:48:59;;;;;;;4.20;3.43;;;19.80;99.90;;;;;;5099540;28;20184;-63
2023/09/28 01:51:26;;;;;;;7.47;3.70;;;19.70;99.90;;;;;;5099211;28;20188;-64
2023/09/28 01:53:51;;;;;;;3.90;3.50;;;19.70;99.90;;;;;;5104510;28;20262;-64
2023/09/28 01:56:18;;;;;;;3.47;3.20;;;19.70;99.90;;;;;;5099427;28;20514;-64
2023/09/28 01:58:44;;;;;;;3.50;3.17;;;19.70;99.90;;;;;;5106163;28;20191;-64
2023/09/28 02:01:26;;;;;;;5.67;3.60;;;19.60;99.90;;;;;;5101975;28;20847;-64
2023/09/28 02:03:51;;;;;;;4.70;3.20;;;19.70;99.90;;;;;;5105637;28;20946;-64
2023/09/28 02:06:18;;;;;;;3.40;3.10;;;19.70;99.90;;;;;;5101839;28;20473;-64
2023/09/28 02:08:45;;;;;;;4.07;3.67;;;19.60;99.90;;;;;;5099853;28;20264;-64
2023/09/28 02:11:11;;;;;;;3.23;3.03;;;19.60;99.90;;;;;;5086685;28;20491;-64
2023/09/28 02:13:37;;;;;;;7.60;3.50;;;19.50;99.90;;;;;;5099474;28;20422;-64
2023/09/28 02:16:03;;;;;;;5.03;3.10;;;19.50;99.90;;;;;;5081491;28;20604;-64
2023/09/28 02:18:28;;;;;;;3.70;3.40;;;19.50;99.90;;;;;;5104039;28;20191;-64
2023/09/28 02:20:54;;;;;;;3.43;3.13;;;19.50;99.90;;;;;;5103629;28;20490;-64
2023/09/28 02:23:22;;;;;;;3.90;3.50;;;19.50;99.90;;;;;;5102030;28;20176;-64
2023/09/28 02:25:47;;;;;;;3.37;3.07;;;19.40;99.90;;;;;;5100328;28;20212;-64
2023/09/28 02:28:13;;;;;;;3.40;3.10;;;19.40;99.90;;;;;;5105158;28;20444;-64
2023/09/28 02:30:39;;;;;;;3.87;3.57;;;19.30;99.90;;;;;;5100197;28;20179;-64
2023/09/28 02:33:06;;;;;;;3.70;3.37;;;19.30;99.90;;;;;;5101026;28;21036;-64
2023/09/28 02:35:32;;;;;;;6.07;3.77;;;19.40;99.90;;;;;;5096366;28;20184;-64
2023/09/28 02:37:58;;;;;;;3.83;3.13;;;19.40;99.90;;;;;;5100610;28;20490;-64
2023/09/28 02:40:24;;;;;;;3.73;3.13;;;19.50;99.90;;;;;;5103850;28;20190;-64
2023/09/28 02:42:50;;;;;;;3.20;3.00;;;19.50;99.90;;;;;;5097593;28;20187;-64
2023/09/28 02:45:16;;;;;;;3.33;2.97;;;19.50;99.90;;;;;;5101871;28;20265;-64
2023/09/28 02:47:44;;;;;;;3.40;3.20;;;19.50;99.90;;;;;;5104770;28;21275;-64
2023/09/28 02:50:11;;;;;;;3.60;3.30;;;19.60;99.90;;;;;;5097739;28;20441;-64
2023/09/28 02:52:41;;;;;;;3.60;3.30;;;19.50;99.90;;;;;;5099337;28;20434;-64
2023/09/28 02:55:10;;;;;;;3.20;2.90;;;19.60;99.90;;;;;;5096557;28;20414;-64
2023/09/28 02:57:36;;;;;;;3.50;3.20;;;19.60;99.90;;;;;;5105003;28;20441;-64
2023/09/28 03:00:30;;;;;;;3.50;3.20;;;19.50;99.90;;;;;;5100584;28;20429;-64
2023/09/28 03:02:52;;;;;;;3.40;3.10;;;19.50;99.90;;;;;;5099906;28;21038;-64
2023/09/28 03:05:21;;;;;;;5.33;2.93;;;19.50;99.90;;;;;;5100738;28;20468;-64
2023/09/28 03:07:47;;;;;;;3.70;3.17;;;19.50;99.90;;;;;;5101811;28;20456;-64
2023/09/28 03:10:13;;;;;;;4.33;3.23;;;19.50;99.90;;;;;;5100853;28;21123;-64
2023/09/28 03:12:39;;;;;;;4.03;3.20;;;19.40;99.90;;;;;;5101281;28;20176;-64
2023/09/28 03:15:10;;;;;;;3.13;2.83;;;19.40;99.90;;;;;;5100775;28;20905;-64
2023/09/28 03:17:40;;;;;;;3.30;3.00;;;19.40;99.90;;;;;;5104455;28;20467;-64
2023/09/28 03:20:17;;;;;;;2.77;2.53;;;19.40;99.90;;;;;;5100604;28;20506;-64
2023/09/28 03:22:49;;;;;;;5.30;3.00;;;19.40;99.90;;;;;;5100878;28;20438;-64
2023/09/28 03:25:18;;;;;;;3.70;3.40;;;19.40;99.90;;;;;;5083290;28;21182;-64
2023/09/28 03:27:54;;;;;;;3.37;3.07;;;19.30;99.90;;;;;;5100896;28;20483;-64
2023/09/28 03:30:25;;;;;;;3.30;3.00;;;19.30;99.90;;;;;;5100260;28;20421;-64
2023/09/28 03:32:52;;;;;;;3.20;3.00;;;19.30;99.90;;;;;;5100096;28;20433;-63
2023/09/28 03:35:19;;;;;;;3.00;2.80;;;19.30;99.90;;;;;;5100772;28;20424;-64
2023/09/28 03:37:46;;;;;;;3.00;2.80;;;19.30;99.90;;;;;;5100425;28;20429;-64
2023/09/28 03:40:13;;;;;;;5.73;3.07;;;19.30;99.90;;;;;;5103785;28;20433;-64
2023/09/28 03:42:48;;;;;;;2.90;2.70;;;19.30;99.90;;;;;;5086168;28;20820;-64
2023/09/28 03:45:16;;;;;;;4.60;3.10;;;19.20;99.90;;;;;;5098544;28;20986;-64
2023/09/28 03:47:44;;;;;;;3.03;2.73;;;19.30;99.90;;;;;;5100391;28;20478;-64
2023/09/28 03:50:12;;;;;;;3.70;3.40;;;19.20;99.90;;;;;;5103179;28;20446;-64
2023/09/28 03:52:38;;;;;;;3.67;3.37;;;19.20;99.90;;;;;;5103817;28;20550;-64
2023/09/28 03:55:18;;;;;;;3.00;2.80;;;19.20;99.90;;;;;;5103378;28;20507;-64
2023/09/28 03:57:47;;;;;;;5.57;4.20;;;19.20;99.90;;;;;;5100048;28;20444;-64
2023/09/28 04:00:14;;;;;;;4.27;3.87;;;19.20;99.90;;;;;;5095388;28;20429;-64
2023/09/28 04:02:44;;;;;;;3.67;3.37;;;19.20;99.90;;;;;;5078639;28;20436;-64
2023/09/28 04:05:10;;;;;;;3.83;3.40;;;19.20;99.90;;;;;;5099949;28;20472;-63
2023/09/28 04:07:36;;;;;;;5.00;3.53;;;19.10;99.90;;;;;;5085453;28;20418;-64
2023/09/28 04:10:03;;;;;;;4.40;4.00;;;19.10;99.90;;;;;;5097401;28;20746;-64
2023/09/28 04:12:29;;;;;;;3.37;3.07;;;19.10;99.90;;;;;;5095233;28;20423;-64
2023/09/28 04:14:55;;;;;;;4.07;3.30;;;19.00;99.90;;;;;;5099231;28;20842;-64
2023/09/28 04:17:20;;;;;;;3.50;3.20;;;19.00;99.90;;;;;;5102500;28;20199;-64
2023/09/28 04:19:46;;;;;;;3.60;3.30;;;19.00;99.90;;;;;;5100256;28;20192;-64
2023/09/28 04:22:12;;;;;;;4.00;3.40;;;19.00;99.90;;;;;;5098241;28;20176;-64
2023/09/28 04:24:38;;;;;;;3.60;3.30;;;19.00;99.90;;;;;;5103501;28;20605;-63
2023/09/28 04:27:03;;;;;;;3.73;3.43;;;19.00;99.90;;;;;;5094355;28;20457;-64
2023/09/28 04:29:29;;;;;;;3.80;3.40;;;19.00;99.90;;;;;;5102764;28;20261;-63
2023/09/28 04:31:55;;;;;;;3.50;3.10;;;19.00;99.90;;;;;;5099072;28;20187;-64
2023/09/28 04:34:20;;;;;;;3.90;3.50;;;19.00;99.90;;;;;;5098419;28;20642;-64
2023/09/28 04:36:46;;;;;;;5.17;3.70;;;19.00;99.90;;;;;;5094229;28;20272;-64
2023/09/28 04:39:13;;;;;;;4.93;3.27;;;18.90;99.90;;;;;;5076412;28;20195;-64
2023/09/28 04:41:39;;;;;;;5.03;4.20;;;18.80;99.90;;;;;;5096007;28;21233;-63
2023/09/28 04:44:09;;;;;;;4.50;4.10;;;18.80;99.90;;;;;;5102448;28;20422;-64
2023/09/28 04:46:34;;;;;;;5.53;4.03;;;18.80;99.90;;;;;;5099388;28;20461;-64
2023/09/28 04:49:01;;;;;;;5.53;3.30;;;18.80;99.90;;;;;;5098374;28;20937;-64
2023/09/28 04:51:27;;;;;;;5.07;3.60;;;18.80;99.90;;;;;;5097622;28;20527;-64
2023/09/28 04:53:53;;;;;;;6.03;3.57;;;18.80;99.90;;;;;;5097692;28;20457;-64
2023/09/28 04:56:18;;;;;;;3.57;3.27;;;18.80;99.90;;;;;;5099744;28;21141;-64
2023/09/28 04:58:45;;;;;;;4.03;3.67;;;18.80;99.90;;;;;;5100840;28;20211;-62
2023/09/28 05:01:11;;;;;;;4.30;3.80;;;18.80;99.90;;;;;;5099481;28;20192;-63
2023/09/28 05:03:37;;;;;;;3.73;3.43;;;18.90;99.90;;;;;;5099567;28;20502;-64
2023/09/28 05:06:04;;;;;;;4.00;3.60;;;18.80;99.90;;;;;;5099347;28;20595;-64
2023/09/28 05:08:30;;;;;;;4.57;3.40;;;18.70;99.90;;;;;;5100726;28;20195;-64
2023/09/28 05:10:56;;;;;;;4.10;3.70;;;18.70;99.90;;;;;;5106322;28;21118;-64
2023/09/28 05:13:23;;;;;;;4.50;4.00;;;18.70;99.90;;;;;;5099228;28;20422;-64
2023/09/28 05:15:49;;;;;;;3.77;3.47;;;18.60;99.90;;;;;;5098408;28;20568;-64
2023/09/28 05:18:15;;;;;;;3.63;3.33;;;18.50;99.90;;;;;;5102912;28;20509;-64
2023/09/28 05:20:40;;;;;;;4.17;3.80;;;18.50;99.90;;;;;;5102143;28;20514;-64
2023/09/28 05:23:06;;;;;;;3.87;3.47;;;18.50;99.90;;;;;;5099341;28;20175;-64
2023/09/28 05:25:35;;;;;;;4.60;3.90;;;18.50;99.90;;;;;;5099473;28;20222;-64
2023/09/28 05:28:01;;;;;;;4.57;3.40;;;18.50;99.90;;;;;;5102064;28;20184;-64
2023/09/28 05:30:27;;;;;;;5.03;3.80;;;18.50;99.90;;;;;;5101054;28;20426;-64
2023/09/28 05:32:53;;;;;;;6.63;3.80;;;18.60;99.90;;;;;;5097185;28;21093;-64
2023/09/28 05:35:21;;;;;;;5.60;3.73;;;18.60;99.90;;;;;;5090663;28;20233;-63
2023/09/28 05:37:47;;;;;;;5.60;4.70;;;18.60;99.90;;;;;;5092710;28;20196;-64
2023/09/28 05:40:13;;;;;;;5.27;3.47;;;18.60;99.90;;;;;;5102049;28;21096;-64
2023/09/28 05:42:39;;;;;;;4.30;3.90;;;18.60;99.90;;;;;;5112501;28;20425;-64
2023/09/28 05:45:05;;;;;;;5.00;4.20;;;18.60;99.90;;;;;;5104671;28;20184;-64
2023/09/28 05:47:33;;;;;;;3.90;3.53;;;18.60;99.90;;;;;;5105941;28;20426;-64
2023/09/28 05:49:59;;;;;;;3.70;3.40;;;18.60;99.90;;;;;;5098827;28;20450;-64
2023/09/28 05:52:25;;;;;;;4.97;3.70;;;18.50;99.90;;;;;;5098616;28;20487;-64
2023/09/28 05:54:50;;;;;;;4.33;3.93;;;18.50;99.90;;;;;;5102573;27;20190;-64
2023/09/28 05:57:16;;;;;;;5.83;4.10;;;18.50;99.90;;;;;;5110674;27;20240;-65
2023/09/28 05:59:42;;;;;;;4.23;3.77;;;18.50;99.90;;;;;;5108350;27;20233;-64
2023/09/28 06:02:08;;;;;;;7.10;4.03;;;18.50;99.90;;;;;;5098927;28;20218;-64
2023/09/28 06:04:34;;;;;;;4.73;3.80;;;18.40;99.90;;;;;;5103945;27;20247;-64
2023/09/28 06:06:59;;;;;;;4.23;3.83;;;18.40;99.90;;;;;;5110766;27;21047;-64
2023/09/28 06:09:26;;;;;;;4.47;4.10;;;18.40;99.90;;;;;;5103104;27;20275;-64
2023/09/28 06:11:52;;;;;;;4.40;3.97;;;18.40;99.90;;;;;;5078750;28;20199;-64
2023/09/28 06:14:19;;;;;;;4.37;3.97;;;18.30;99.90;;;;;;5099800;28;20431;-64
2023/09/28 06:16:45;;;;;;;4.80;4.40;;;18.30;99.90;;;;;;5096027;28;20461;-64
2023/09/28 06:19:14;;;;;;;4.60;4.20;;;18.30;99.90;;;;;;5104956;28;20563;-64
2023/09/28 06:21:40;;;;;;;5.13;4.73;;;18.40;99.90;;;;;;5100748;28;20445;-64
2023/09/28 06:24:06;;;;;;;5.50;4.67;;;18.40;99.90;;;;;;5096934;28;20489;-64
2023/09/28 06:26:33;;;;;;;4.00;3.60;;;18.40;99.90;;;;;;5099967;28;20469;-64
2023/09/28 06:29:02;;;;;;;4.90;4.40;;;18.50;99.90;;;;;;5101674;28;20436;-64
2023/09/28 06:31:27;;;;;;;4.13;3.73;;;18.50;99.90;;;;;;5104286;28;20426;-64
2023/09/28 06:33:53;;;;;;;5.57;4.10;;;18.60;99.90;;;;;;5103705;28;20436;-64
2023/09/28 06:36:19;;;;;;;5.10;4.57;;;18.60;99.90;;;;;;5101457;28;20184;-64
2023/09/28 06:38:46;;;;;;;7.33;4.57;;;18.70;99.90;;;;;;5104326;28;20971;-64
2023/09/28 06:41:11;;;;;;;4.87;4.30;;;18.70;99.90;;;;;;5101761;28;20194;-64
2023/09/28 06:43:37;;;;;;;4.63;4.23;;;18.70;99.90;;;;;;5100067;28;20422;-64
2023/09/28 06:46:03;;;;;;;7.83;4.70;;;18.80;99.90;;;;;;5107156;27;20259;-63
2023/09/28 06:48:29;;;;;;;4.73;3.80;;;18.80;99.90;;;;;;5101366;28;20188;-64
2023/09/28 06:50:58;;;;;;;8.30;3.93;;;18.80;99.90;;;;;;5104468;27;20510;-64
2023/09/28 06:53:24;;;;;;;6.37;4.13;;;18.80;99.90;;;;;;5107339;27;20437;-64
2023/09/28 06:55:50;;;;;;;5.27;4.30;;;18.90;99.90;;;;;;5096504;28;20430;-64
2023/09/28 06:58:17;;;;;;;6.83;4.30;;;18.90;99.90;;;;;;5081371;28;20425;-63
2023/09/28 07:00:44;;;;;;;5.07;4.63;;;18.90;99.90;;;;;;5097088;28;20441;-64
2023/09/28 07:03:09;;;;;;;6.70;5.53;;;19.00;99.90;;;;;;5100956;28;20461;-64
2023/09/28 07:05:36;;;;;;;4.80;4.40;;;19.00;99.90;;;;;;5097895;28;20470;-64
2023/09/28 07:08:05;;;;;;;5.83;4.77;;;19.10;99.90;;;;;;5095848;28;20195;-66
2023/09/28 07:10:37;;;;;;;5.77;4.53;;;19.10;99.90;;;;;;5100559;28;20434;-64
2023/09/28 07:13:05;;;;;;;9.90;5.90;;;19.20;99.90;;;;;;5099845;28;20502;-64
2023/09/28 07:15:36;;;;;;;6.97;5.40;;;19.30;99.90;;;;;;5098374;28;20425;-64
2023/09/28 07:18:03;;;;;;;7.70;5.50;;;19.40;99.90;;;;;;5100163;28;20536;-64
2023/09/28 07:20:29;;;;;;;6.43;5.23;;;19.50;99.90;;;;;;5098724;28;20807;-64
2023/09/28 07:22:55;;;;;;;7.63;5.30;;;19.60;99.90;;;;;;5098455;28;20430;-63
2023/09/28 07:25:21;;;;;;;7.90;5.10;;;19.70;99.90;;;;;;5104078;28;20449;-64
2023/09/28 07:27:50;;;;;;;6.00;5.40;;;19.70;99.90;;;;;;5099998;28;21070;-64
2023/09/28 07:30:19;;;;;;;5.80;5.13;;;19.80;99.90;;;;;;5103772;28;20995;-64
2023/09/28 07:32:45;;;;;;;4.73;4.33;;;19.90;99.90;;;;;;5099821;28;20923;-64
2023/09/28 07:35:11;;;;;;;6.03;4.73;;;19.90;99.90;;;;;;5100713;28;20422;-64
2023/09/28 07:37:42;;;;;;;7.73;5.30;;;20.00;99.90;;;;;;5099350;28;20459;-64
2023/09/28 07:40:12;;;;;;;6.10;5.50;;;20.10;99.90;;;;;;5104276;28;20483;-64
2023/09/28 07:42:39;;;;;;;5.43;4.90;;;20.20;99.90;;;;;;5096518;28;21003;-64
2023/09/28 07:45:05;;;;;;;6.17;5.57;;;20.30;99.90;;;;;;5104068;28;21187;-64
2023/09/28 07:47:31;;;;;;;6.50;5.67;;;20.30;99.90;;;;;;5103761;28;20834;-64
2023/09/28 07:49:56;;;;;;;6.10;4.90;;;20.40;99.90;;;;;;5103103;28;20437;-64
2023/09/28 07:52:23;;;;;;;5.13;4.63;;;20.50;99.90;;;;;;5100408;28;20238;-64
2023/09/28 07:54:48;;;;;;;5.97;4.70;;;20.60;99.90;;;;;;5099935;28;20188;-64
2023/09/28 07:57:14;;;;;;;6.87;5.40;;;20.60;99.90;;;;;;5085658;28;20418;-64
2023/09/28 07:59:40;;;;;;;5.87;5.27;;;20.70;99.90;;;;;;5099466;28;20203;-64
2023/09/28 08:02:09;;;;;;;7.17;5.20;;;20.80;99.90;;;;;;5095351;28;20215;-64
2023/09/28 08:04:36;;;;;;;6.50;5.23;;;20.80;99.90;;;;;;5099507;28;20211;-64
2023/09/28 08:07:01;;;;;;;7.53;5.23;;;20.90;99.90;;;;;;5099833;28;20466;-64
2023/09/28 08:09:27;;;;;;;7.50;4.73;;;20.80;99.90;;;;;;5099808;28;20434;-64
2023/09/28 08:11:53;;;;;;;11.10;5.13;;;20.80;99.90;;;;;;5098901;28;20325;-64
2023/09/28 08:14:21;;;;;;;6.00;5.40;;;20.80;99.90;;;;;;5099969;28;20232;-63
2023/09/28 08:16:48;;;;;;;6.20;4.53;;;20.80;99.90;;;;;;5098939;28;20290;-64
2023/09/28 08:19:14;;;;;;;5.23;4.70;;;20.70;99.90;;;;;;5103498;28;20959;-64
2023/09/28 08:21:41;;;;;;;7.73;5.43;;;20.60;99.90;;;;;;5098948;28;20432;-64
2023/09/28 08:24:07;;;;;;;6.60;4.97;;;20.60;99.90;;;;;;5095134;28;20839;-64
2023/09/28 08:26:34;;;;;;;7.67;5.87;;;20.50;99.90;;;;;;5099943;28;20464;-64
2023/09/28 08:29:00;;;;;;;7.83;5.70;;;20.50;99.90;;;;;;5094173;28;21001;-64
2023/09/28 08:31:29;;;;;;;9.67;5.57;;;20.50;99.90;;;;;;5099473;28;20417;-64
2023/09/28 08:33:55;;;;;;;5.07;4.50;;;20.50;99.90;;;;;;5084450;28;20448;-63
2023/09/28 08:36:21;;;;;;;5.20;4.60;;;20.60;99.90;;;;;;5099725;28;20422;-64
2023/09/28 08:38:47;;;;;;;9.40;5.40;;;20.60;99.90;;;;;;5097271;28;20248;-64
2023/09/28 08:41:16;;;;;;;7.70;5.20;;;20.80;99.90;;;;;;5103025;28;20418;-64
2023/09/28 08:43:46;;;;;;;9.87;5.10;;;20.80;99.90;;;;;;5097465;28;20432;-64
2023/09/28 08:46:14;;;;;;;9.10;6.07;;;20.80;99.90;;;;;;5103328;28;20827;-64
2023/09/28 08:48:51;;;;;;;7.13;5.20;;;20.80;99.90;;;;;;5065152;28;20472;-64
2023/09/28 08:51:18;;;;;;;8.73;4.93;;;20.70;99.90;;;;;;5095303;28;20452;-64
2023/09/28 08:53:48;;;;;;;7.80;4.43;;;20.70;99.90;;;;;;5099347;28;20442;-64
2023/09/28 08:56:14;;;;;;;6.10;5.40;;;20.70;99.90;;;;;;5097774;28;20439;-64
2023/09/28 08:58:42;;;;;;;7.40;5.40;;;20.70;99.90;;;;;;5094537;28;20596;-64
2023/09/28 09:01:07;;;;;;;10.60;5.50;;;20.70;99.90;;;;;;5098010;28;20459;-64
2023/09/28 09:03:34;;;;;;;5.60;4.47;;;20.70;99.90;;;;;;5095913;28;20516;-64
2023/09/28 09:06:02;;;;;;;6.13;5.00;;;20.70;99.90;;;;;;5097869;28;20515;-64
2023/09/28 09:08:30;;;;;;;9.10;4.53;;;20.70;99.90;;;;;;5098095;28;20464;-64
2023/09/28 09:10:56;;;;;;;7.43;4.87;;;20.70;99.90;;;;;;5098691;28;20548;-64
2023/09/28 09:13:22;;;;;;;6.07;3.80;;;20.60;99.90;;;;;;5098814;28;20509;-64
2023/09/28 09:15:49;;;;;;;5.67;4.40;;;20.60;99.90;;;;;;5098977;28;20187;-63
2023/09/28 09:18:18;;;;;;;8.57;4.93;;;20.60;99.90;;;;;;5097320;28;20290;-64
2023/09/28 09:20:46;;;;;;;7.63;4.47;;;20.60;99.90;;;;;;5095554;28;20430;-64
2023/09/28 09:23:16;;;;;;;6.83;4.57;;;20.60;99.90;;;;;;5098364;28;20433;-63
2023/09/28 09:25:53;;;;;;;7.53;4.53;;;20.60;99.90;;;;;;5098704;28;20464;-64
2023/09/28 09:28:32;;;;;;;5.97;4.57;;;20.60;99.90;;;;;;5101475;28;20769;-64
2023/09/28 09:30:58;;;;;;;5.90;4.63;;;20.60;99.90;;;;;;5101291;28;20497;-64
2023/09/28 09:33:25;;;;;;;6.90;4.47;;;20.60;99.90;;;;;;5105736;28;20426;-64
2023/09/28 09:35:51;;;;;;;6.43;4.43;;;20.60;99.90;;;;;;5106831;28;20809;-64
2023/09/28 09:38:43;;;;;;;6.20;4.07;;;20.60;99.90;;;;;;5100543;28;20422;-64
2023/09/28 09:41:10;;;;;;;5.20;3.70;;;20.50;99.90;;;;;;5093133;28;20967;-64
2023/09/28 09:43:36;;;;;;;10.03;5.47;;;20.50;99.90;;;;;;5103848;28;20826;-64
2023/09/28 09:46:10;;;;;;;8.43;5.00;;;20.50;99.90;;;;;;5102766;28;20565;-64
2023/09/28 09:48:43;;;;;;;8.43;4.43;;;20.50;99.90;;;;;;5102524;28;20806;-64
2023/09/28 09:51:14;;;;;;;5.60;4.33;;;20.50;99.90;;;;;;5101105;28;21170;-64
2023/09/28 09:53:41;;;;;;;7.83;4.57;;;20.50;99.90;;;;;;5106083;28;20425;-64
2023/09/28 09:56:08;;;;;;;10.33;5.50;;;20.50;99.90;;;;;;5101377;28;20445;-64
2023/09/28 09:58:40;;;;;;;5.40;4.50;;;20.50;99.90;;;;;;5106009;28;20436;-64
2023/09/28 10:01:12;;;;;;;7.13;5.17;;;20.50;99.90;;;;;;5101876;28;20422;-63
2023/09/28 10:03:52;;;;;;;5.83;5.20;;;20.50;99.90;;;;;;5098351;28;20451;-64
2023/09/28 10:06:22;;;;;;;5.73;4.27;;;20.50;99.90;;;;;;5105066;28;20456;-64
2023/09/28 10:08:53;;;;;;;8.70;5.37;;;20.50;99.90;;;;;;5101832;28;20686;-64
2023/09/28 10:11:19;;;;;;;5.23;4.73;;;20.50;99.90;;;;;;5101395;28;20441;-65
2023/09/28 10:13:48;;;;;;;5.73;4.47;;;20.50;99.90;;;;;;5102078;28;20494;-64
2023/09/28 10:16:15;;;;;;;6.30;4.80;;;20.60;99.90;;;;;;5101354;28;20432;-64
2023/09/28 10:18:43;;;;;;;7.23;4.90;;;20.60;99.90;;;;;;5102110;28;20759;-64
2023/09/28 10:21:11;;;;;;;4.43;3.60;;;20.70;99.90;;;;;;5100937;28;20429;-64
2023/09/28 10:23:37;;;;;;;9.87;3.70;;;20.60;99.90;;;;;;5094019;28;20434;-64
2023/09/28 10:26:12;;;;;;;7.40;4.47;;;20.60;99.90;;;;;;5099674;28;20464;-64
2023/09/28 10:29:04;;;;;;;5.20;4.17;;;20.60;99.90;;;;;;5098338;28;20241;-64
2023/09/28 10:31:40;;;;;;;4.67;4.20;;;20.60;99.90;;;;;;5097844;28;20433;-64
2023/09/28 10:34:07;;;;;;;10.20;4.93;;;20.50;99.90;;;;;;5100828;28;20460;-64
2023/09/28 10:36:35;;;;;;;11.77;4.43;;;20.60;99.90;;;;;;5101389;28;20432;-64
2023/09/28 10:39:14;;;;;;;4.97;4.30;;;20.60;99.90;;;;;;5099501;28;21091;-64
2023/09/28 10:41:49;;;;;;;6.07;3.73;;;20.70;99.90;;;;;;5075123;28;20421;-64
2023/09/28 10:44:21;;;;;;;8.60;4.47;;;20.80;99.90;;;;;;5104202;28;20417;-64
2023/09/28 10:46:51;;;;;;;5.97;3.90;;;20.70;99.90;;;;;;5098377;28;20560;-64
2023/09/28 10:49:27;;;;;;;4.90;3.83;;;20.70;99.90;;;;;;5102709;28;20545;-64
2023/09/28 10:51:55;;;;;;;4.77;4.30;;;20.70;99.90;;;;;;5099264;28;20430;-64
2023/09/28 10:54:21;;;;;;;7.63;4.10;;;20.80;99.90;;;;;;5104108;28;20422;-64
2023/09/28 10:56:48;;;;;;;6.37;3.93;;;20.80;99.90;;;;;;5101095;28;21074;-64
2023/09/28 10:59:15;;;;;;;5.60;4.37;;;20.80;99.90;;;;;;5096049;28;20425;-64
2023/09/28 11:01:48;;;;;;;7.80;4.20;;;20.90;99.90;;;;;;5101264;28;20444;-64
2023/09/28 11:04:15;;;;;;;7.07;4.20;;;20.90;99.90;;;;;;5101035;28;20424;-64
2023/09/28 11:06:43;;;;;;;9.03;4.77;;;20.90;99.90;;;;;;5086495;28;20461;-64
2023/09/28 11:09:09;;;;;;;5.00;3.93;;;20.90;99.90;;;;;;5099797;28;20434;-64
2023/09/28 11:11:39;;;;;;;7.77;3.97;;;21.00;99.90;;;;;;5101294;28;20439;-64
2023/09/28 11:14:05;;;;;;;6.90;4.60;;;21.00;99.90;;;;;;5099795;28;21018;-64
2023/09/28 11:16:33;;;;;;;4.87;4.00;;;21.00;99.90;;;;;;5097436;28;20476;-64
2023/09/28 11:19:00;;;;;;;6.30;4.03;;;21.00;99.90;;;;;;5094780;28;20465;-64
2023/09/28 11:21:26;;;;;;;6.93;3.80;;;21.10;99.90;;;;;;5094737;28;20426;-64
2023/09/28 11:23:52;;;;;;;6.80;4.40;;;21.10;99.90;;;;;;5100730;28;21221;-64
2023/09/28 11:26:22;;;;;;;6.70;3.93;;;21.10;99.90;;;;;;5102936;28;20572;-64
2023/09/28 11:28:52;;;;;;;7.43;4.47;;;21.10;99.90;;;;;;5101401;28;20927;-65
2023/09/28 11:31:18;;;;;;;8.57;4.87;;;21.10;99.90;;;;;;5102862;28;21090;-64
2023/09/28 11:33:45;;;;;;;7.03;4.50;;;21.20;99.90;;;;;;5101546;28;20504;-64
2023/09/28 11:36:20;;;;;;;8.53;4.60;;;21.20;99.90;;;;;;5099551;28;20418;-64
2023/09/28 11:38:47;;;;;;;6.43;4.50;;;21.20;99.90;;;;;;5097023;28;20990;-64
2023/09/28 11:41:13;;;;;;;7.50;4.93;;;21.20;99.90;;;;;;5099363;28;20429;-64
2023/09/28 11:43:56;;;;;;;7.30;4.63;;;21.20;99.90;;;;;;5100299;28;20955;-64
2023/09/28 11:46:24;;;;;;;6.90;4.97;;;21.20;99.90;;;;;;5097563;28;20465;-64
2023/09/28 11:49:09;;;;;;;6.63;4.77;;;21.10;99.90;;;;;;5098974;28;21000;-64
2023/09/28 11:51:36;;;;;;;6.03;5.00;;;21.10;99.90;;;;;;5100061;28;20437;-64
2023/09/28 11:54:06;;;;;;;5.70;4.10;;;21.20;99.90;;;;;;5099677;28;20425;-64
2023/09/28 11:56:32;;;;;;;8.03;4.83;;;21.20;99.90;;;;;;5101520;28;20430;-63
2023/09/28 11:58:58;;;;;;;9.60;5.30;;;21.20;99.90;;;;;;5102157;28;20444;-64
2023/09/28 12:01:24;;;;;;;6.00;4.47;;;21.20;99.90;;;;;;5099732;28;20413;-64
2023/09/28 12:03:50;;;;;;;6.47;4.00;;;21.30;99.90;;;;;;5100107;28;20254;-64
2023/09/28 12:06:19;;;;;;;8.13;4.53;;;21.40;99.90;;;;;;5093818;28;20462;-64
2023/09/28 12:08:45;;;;;;;7.60;5.00;;;21.40;99.90;;;;;;5103614;28;20222;-64
2023/09/28 12:11:12;;;;;;;9.03;5.60;;;21.40;99.90;;;;;;5098834;28;20429;-64
2023/09/28 12:13:37;;;;;;;7.23;5.50;;;21.30;99.90;;;;;;5099034;28;20954;-64
2023/09/28 12:16:04;;;;;;;8.77;5.70;;;21.30;99.90;;;;;;5102486;28;20468;-64
2023/09/28 12:18:29;;;;;;;6.03;5.30;;;21.30;99.90;;;;;;5097625;28;20183;-64
2023/09/28 12:20:55;;;;;;;8.13;6.77;;;21.30;99.90;;;;;;5101337;28;20432;-64
2023/09/28 12:23:21;;;;;;;7.57;5.00;;;21.30;99.90;;;;;;5098299;28;20326;-63
2023/09/28 12:25:47;;;;;;;7.50;5.33;;;21.30;99.90;;;;;;5085358;28;20504;-65
2023/09/28 12:28:13;;;;;;;5.90;4.50;;;21.30;99.90;;;;;;5099006;28;20190;-64
2023/09/28 12:30:39;;;;;;;8.20;5.27;;;21.30;99.90;;;;;;5095636;28;20829;-64
2023/09/28 12:33:07;;;;;;;6.20;5.27;;;21.40;99.90;;;;;;5098074;28;20188;-64
2023/09/28 12:35:33;;;;;;;7.57;5.00;;;21.40;99.90;;;;;;5098943;28;20461;-65
2023/09/28 12:38:01;;;;;;;7.67;5.93;;;21.50;99.90;;;;;;5098649;28;20468;-64
2023/09/28 12:40:28;;;;;;;6.63;5.77;;;21.40;99.90;;;;;;5096865;28;20524;-64
2023/09/28 12:42:54;;;;;;;5.93;5.10;;;21.40;99.90;;;;;;5097203;28;21307;-64
2023/09/28 12:45:20;;;;;;;9.73;5.43;;;21.40;99.90;;;;;;5098240;28;20504;-64
2023/09/28 12:47:47;;;;;;;8.20;5.93;;;21.40;99.90;;;;;;5099803;28;20726;-64
2023/09/28 12:50:12;;;;;;;6.83;5.50;;;21.40;99.90;;;;;;5097336;28;20434;-64
2023/09/28 12:52:38;;;;;;;6.57;5.33;;;21.50;99.90;;;;;;5099850;28;21046;-64
2023/09/28 12:55:04;;;;;;;6.20;5.00;;;21.50;99.90;;;;;;5097463;28;20602;-64
2023/09/28 12:57:30;;;;;;;7.77;6.00;;;21.60;99.90;;;;;;5103032;28;20187;-64
2023/09/28 12:59:56;;;;;;;5.00;4.40;;;21.60;99.90;;;;;;5102590;28;20429;-64